Great Falls International Airport
KGTF : now visible

Airfield :











YOU CAN JOIN US ON...

 
LOGIN :

Register | Disclaimer

   EN    FR    IT 

 









Legend :    VFR   Marginal VFR   IFR   Intensive IFR   Very Intensive IFR
Visi :
Ceiling :
>= 8 km
>= 3000ft
5 to 8 km
1000 to 3000 ft
1500m to 5 km
500 to 1000 ft
800 to 1500m
200 to 500 ft
< 800m
< 200 ft
Symbols :   Thunderstorms  Fog  Heavy snow  Heavy precipitations  Wind > 20 kt






- Airport Elevation : 3680 ft
- IATA code : GTF


KGTF - Great Falls International

CURRENT METAR :
  • 290453Z 18015KT 10SM CLR 18/07 A2988 RMK AO2 SLP090 T01780072

EXPIRED METARs :
  • 290353Z 12013KT 10SM CLR 17/08 A2987 RMK AO2 RAE0256 SLP093 P0000 T01720083
  • 290253Z 31007KT 10SM -RA FEW070 BKN090 OVC110 16/09 A2989 RMK AO2 PK WND 25038/0219 RAB08 SLP104 P0000 60000 T01610094 50005
  • 290153Z 23019G28KT 10SM BKN110 19/07 A2991 RMK AO2 PK WND 26042/0059 PRESRR SLP116 T01890067
  • 290053Z 26018G25KT 10SM BKN120 23/04 A2987 RMK AO2 SLP101 T02280039

TAF KGTF
Valid from the 29 at 00:00 until the 30 at 00:00 UTC


282325Z 2900/2924 18015G27KT P6SM VCSH BKN110
FM290100 26008KT P6SM VCTS BKN100CB
TEMPO 2902/2904 VRB12G30KT 4SM -TSRA OVC030CB
FM290400 19008KT P6SM BKN110
PROB30 2909/2912 4SM -SHRA BR OVC025
FM291400 26011KT P6SM BKN035
PROB30 2914/2917 4SM -SHRA BR OVC025
KZLC FIR / North America



MET'MAP, your aeronautical weather chart ! - Copyright ORBIFLY December 2007 - Disclaimer

ORBIFLY MET'MAP TEAM :

Programming & Development : Alexandra Zaïnal
Original concept : Baudouin d'Aumeries
Technical & hardware support : Manuel Goepfert
Assistance : Marc-Olivier Méhu




SOURCES & CREDITS :

   NOAA       Earth
Advisory